| |
Missouri Department of Transportation

Social Media Facebook Twitter Flickr Instagram YouTube RSS

Current AWOS Information

 
AWOS Home - General Info for all Airports
Current AWOS for all Airports - Current METAR for all Airports
Glossary - Disclaimer - Other Links


HANNIBAL--HANNIBAL REGIONAL--KHAE
 
Recent AWOS History
 
09/26/16     10:22 PM CDT      03:22 GMT
Air Temperature 66°F (19°C ) 1st Cloud Layer Scattered at 7,000 feet
Dew Point 54°F (12°C) 2nd Cloud Layer Overcast at 9,500 feet
Barometric Pressure 30.14 in Hg. 3rd Cloud Layer  
Wind Speed 11 mph (10 knots) Density Altitude  
Peak Wind Gusts   Variable Wind Directions  
Wind Direction Quadrant(290°) Variable Visibility  
Visibility 10 statute miles  

Thunderstorm and Precipitation Identification:  Light Rain
Thunderstorm Remarks: 

Current METAR Record: METAR KHAE 260326Z AUTO 30011KT 10SM -DZ SCT070 OVC095 19/12 A3014 RMK AO2

 

 

 

About Us
How Do I...
Contact Us
Missouri Department of Transportation
Central Office
105 W. Capitol Avenue
Jefferson City, MO 65102
1-888-ASK-MODOT (275-6636)
1-866-831-6277 (Motor Carrier Services)
Driver's License Offices
horz_bar
| | |
Missouri State Government
© 2013 Missouri Department of Transportation. All Rights Reserved.   Privacy Policy.
 
 
 
 
RSS FeedYoutubeBlogFlickrTwitter Facebook